createdAt,value
2017-09-20T00:00:27.575Z,0
2017-09-20T00:01:36.223Z,0
2017-09-20T00:02:45.203Z,0
2017-09-20T00:03:54.186Z,0
2017-09-20T00:05:03.463Z,0
2017-09-20T00:06:12.117Z,0
2017-09-20T00:07:21.765Z,0
2017-09-20T00:08:30.720Z,0
2017-09-20T00:09:39.737Z,0
2017-09-20T00:10:48.392Z,0
2017-09-20T00:11:57.057Z,0
2017-09-20T00:13:06.045Z,0
2017-09-20T00:14:15.319Z,0
2017-09-20T00:15:24.604Z,0
2017-09-20T00:16:33.565Z,0
2017-09-20T00:17:42.551Z,0
2017-09-20T00:18:51.840Z,0
2017-09-20T00:20:00.512Z,0
2017-09-20T00:21:09.507Z,0
2017-09-20T00:22:18.171Z,0
2017-09-20T00:23:27.753Z,0
2017-09-20T00:24:37.027Z,0
2017-09-20T00:25:46.012Z,0
2017-09-20T00:26:54.976Z,0
2017-09-20T00:28:03.945Z,0
2017-09-20T00:29:13.237Z,0
2017-09-20T00:30:22.520Z,0
2017-09-20T00:31:31.519Z,0
2017-09-20T00:32:41.127Z,0
2017-09-20T00:33:50.089Z,0
2017-09-20T00:34:58.752Z,0
2017-09-20T00:36:07.717Z,0
2017-09-20T00:37:16.685Z,0
2017-09-20T00:38:25.342Z,0
2017-09-20T00:39:34.303Z,0
2017-09-20T00:40:43.578Z,0
2017-09-20T00:41:52.222Z,0
2017-09-20T00:43:00.869Z,0
2017-09-20T00:44:09.827Z,0
2017-09-20T00:45:18.469Z,0
2017-09-20T00:46:27.444Z,0
2017-09-20T00:47:36.429Z,0
2017-09-20T00:48:45.390Z,0
2017-09-20T00:49:54.067Z,0
2017-09-20T00:51:03.368Z,0
2017-09-20T00:52:12.023Z,0
2017-09-20T00:53:20.675Z,0
2017-09-20T00:54:29.645Z,0
2017-09-20T00:55:38.297Z,0
2017-09-20T00:56:46.971Z,0
2017-09-20T00:57:55.959Z,0
2017-09-20T00:59:04.627Z,0
2017-09-20T01:00:13.264Z,0
2017-09-20T01:01:22.859Z,0
2017-09-20T01:02:32.215Z,0
2017-09-20T01:03:40.873Z,0
2017-09-20T01:04:49.849Z,0
2017-09-20T01:05:58.842Z,0
2017-09-20T01:07:08.111Z,0
2017-09-20T01:08:17.409Z,0
2017-09-20T01:09:26.389Z,0
2017-09-20T01:10:35.033Z,0
2017-09-20T01:11:44.016Z,0
2017-09-20T01:12:52.994Z,0
2017-09-20T01:14:02.591Z,0
2017-09-20T01:15:11.900Z,0
2017-09-20T01:16:21.835Z,0
2017-09-20T01:17:30.823Z,0
2017-09-20T01:18:39.796Z,0
2017-09-20T01:19:48.755Z,0
2017-09-20T01:20:57.407Z,0
2017-09-20T01:22:07.018Z,0
2017-09-20T01:23:16.606Z,0
2017-09-20T01:24:25.609Z,0
2017-09-20T01:25:34.893Z,0
2017-09-20T01:26:43.540Z,0
2017-09-20T01:27:52.537Z,0
2017-09-20T01:29:01.508Z,0
2017-09-20T01:30:10.473Z,0
2017-09-20T01:31:19.438Z,0
2017-09-20T01:32:28.423Z,0
2017-09-20T01:33:37.730Z,0
2017-09-20T01:34:46.698Z,0
2017-09-20T01:35:55.351Z,0
2017-09-20T01:37:04.969Z,0
2017-09-20T01:38:14.260Z,0
2017-09-20T01:39:23.555Z,0
2017-09-20T01:40:33.187Z,0
2017-09-20T01:41:42.164Z,0
2017-09-20T01:42:51.140Z,0
2017-09-20T01:44:00.118Z,0
2017-09-20T01:45:08.767Z,0
2017-09-20T01:46:18.062Z,0
2017-09-20T01:47:26.722Z,0
2017-09-20T01:48:36.026Z,0
2017-09-20T01:49:45.305Z,0
2017-09-20T01:50:54.276Z,0
2017-09-20T01:52:03.574Z,0
2017-09-20T01:53:12.221Z,0
2017-09-20T01:54:21.219Z,0
2017-09-20T01:55:30.194Z,0
2017-09-20T01:56:38.859Z,0
2017-09-20T01:57:48.132Z,0
2017-09-20T01:58:57.414Z,0
2017-09-20T02:00:06.378Z,0
2017-09-20T02:01:15.970Z,0
2017-09-20T02:02:25.274Z,0
2017-09-20T02:03:34.245Z,0
2017-09-20T02:04:42.886Z,0
2017-09-20T02:05:51.856Z,0
2017-09-20T02:07:00.826Z,0
2017-09-20T02:08:09.464Z,0
2017-09-20T02:09:19.073Z,0
2017-09-20T02:10:28.046Z,0
2017-09-20T02:11:37.348Z,0
2017-09-20T02:12:46.296Z,0
2017-09-20T02:13:55.262Z,0
2017-09-20T02:15:04.224Z,0
2017-09-20T02:16:13.491Z,0
2017-09-20T02:17:22.143Z,0
2017-09-20T02:18:31.730Z,0
2017-09-20T02:19:41.030Z,0
2017-09-20T02:20:49.992Z,0
2017-09-20T02:21:59.263Z,0
2017-09-20T02:23:08.233Z,0
2017-09-20T02:24:17.698Z,0
2017-09-20T02:25:26.345Z,0
2017-09-20T02:26:35.319Z,0
2017-09-20T02:27:44.278Z,0
2017-09-20T02:28:52.932Z,0
2017-09-20T02:30:02.232Z,0
2017-09-20T02:31:11.512Z,0
2017-09-20T02:32:20.801Z,0
2017-09-20T02:33:29.488Z,0
2017-09-20T02:34:38.453Z,0
2017-09-20T02:35:47.422Z,0
2017-09-20T02:36:56.711Z,0
2017-09-20T02:38:05.993Z,0
2017-09-20T02:39:15.284Z,0
2017-09-20T02:40:24.580Z,0
2017-09-20T02:41:33.851Z,0
2017-09-20T02:42:42.814Z,0
2017-09-20T02:43:51.783Z,0
2017-09-20T02:45:00.452Z,0
2017-09-20T02:46:10.080Z,0
2017-09-20T02:47:19.364Z,0
2017-09-20T02:48:28.407Z,0
2017-09-20T02:49:37.467Z,0
2017-09-20T02:50:46.445Z,0
2017-09-20T02:51:55.409Z,0
2017-09-20T02:53:04.687Z,0
2017-09-20T02:54:13.351Z,0
2017-09-20T02:55:22.639Z,0
2017-09-20T02:56:31.340Z,0
2017-09-20T02:57:40.628Z,0
2017-09-20T02:58:50.055Z,0
2017-09-20T02:59:59.328Z,0
2017-09-20T03:01:08.295Z,0
2017-09-20T03:02:17.588Z,0
2017-09-20T03:03:26.242Z,0
2017-09-20T03:04:35.515Z,0
2017-09-20T03:05:44.472Z,0
2017-09-20T03:06:54.076Z,0
2017-09-20T03:08:03.078Z,0
2017-09-20T03:09:12.055Z,0
2017-09-20T03:10:21.354Z,0
2017-09-20T03:11:30.007Z,0
2017-09-20T03:12:38.976Z,0
2017-09-20T03:13:47.651Z,0
2017-09-20T03:14:56.307Z,0
2017-09-20T03:16:05.329Z,0
2017-09-20T03:17:14.316Z,0
2017-09-20T03:18:23.592Z,0
2017-09-20T03:19:32.554Z,0
2017-09-20T03:20:41.525Z,0
2017-09-20T03:21:50.240Z,0
2017-09-20T03:22:59.510Z,0
2017-09-20T03:24:08.485Z,0
2017-09-20T03:25:17.456Z,0
2017-09-20T03:26:26.425Z,0
2017-09-20T03:27:35.380Z,0
2017-09-20T03:28:44.344Z,0
2017-09-20T03:29:53.322Z,0
2017-09-20T03:31:01.982Z,0
2017-09-20T03:32:10.984Z,0
2017-09-20T03:33:20.570Z,0
2017-09-20T03:34:29.535Z,0
2017-09-20T03:35:39.143Z,0
2017-09-20T03:36:48.104Z,0
2017-09-20T03:37:57.382Z,0
2017-09-20T03:39:06.347Z,0
2017-09-20T03:40:15.321Z,0
2017-09-20T03:41:24.625Z,0
2017-09-20T03:42:33.915Z,0
2017-09-20T03:43:42.889Z,0
2017-09-20T03:44:52.166Z,0
2017-09-20T03:46:01.124Z,0
2017-09-20T03:47:10.127Z,0
2017-09-20T03:48:19.094Z,0
2017-09-20T03:49:28.691Z,0
2017-09-20T03:50:38.608Z,0
2017-09-20T03:51:47.893Z,0
2017-09-20T03:52:57.206Z,0
2017-09-20T03:54:06.166Z,0
2017-09-20T03:55:14.822Z,0
2017-09-20T03:56:23.782Z,0
2017-09-20T03:57:32.766Z,0
2017-09-20T03:58:41.732Z,0
2017-09-20T03:59:50.428Z,0
2017-09-20T04:01:00.353Z,0
2017-09-20T04:02:09.337Z,0
2017-09-20T04:03:18.298Z,0
2017-09-20T04:04:27.342Z,0
2017-09-20T04:05:36.630Z,0
2017-09-20T04:06:46.237Z,0
2017-09-20T04:07:54.890Z,0
2017-09-20T04:09:03.847Z,0
2017-09-20T04:10:12.808Z,0
2017-09-20T04:11:21.453Z,0
2017-09-20T04:12:30.103Z,0
2017-09-20T04:13:39.369Z,0
2017-09-20T04:14:48.671Z,0
2017-09-20T04:15:57.955Z,0
2017-09-20T04:17:06.926Z,0
2017-09-20T04:18:15.568Z,0
2017-09-20T04:19:24.224Z,0
2017-09-20T04:20:33.192Z,0
2017-09-20T04:21:42.156Z,0
2017-09-20T04:22:51.138Z,0
2017-09-20T04:24:00.435Z,0
2017-09-20T04:25:09.720Z,0
2017-09-20T04:26:18.378Z,0
2017-09-20T04:27:27.373Z,0
2017-09-20T04:28:36.076Z,0
2017-09-20T04:29:45.372Z,0
2017-09-20T04:30:54.348Z,0
2017-09-20T04:32:02.998Z,0
2017-09-20T04:33:12.294Z,0
2017-09-20T04:34:21.278Z,0
2017-09-20T04:35:30.251Z,0
2017-09-20T04:36:39.542Z,0
2017-09-20T04:37:49.137Z,0
2017-09-20T04:38:57.792Z,0
2017-09-20T04:40:06.501Z,0
2017-09-20T04:41:15.782Z,0
2017-09-20T04:42:24.769Z,0
2017-09-20T04:43:34.358Z,0
2017-09-20T04:44:43.344Z,0
2017-09-20T04:45:52.957Z,0
2017-09-20T04:47:02.725Z,0
2017-09-20T04:48:11.483Z,0
2017-09-20T04:49:20.559Z,0
2017-09-20T04:50:29.629Z,0
2017-09-20T04:51:38.640Z,0
2017-09-20T04:52:48.838Z,0
2017-09-20T04:53:58.278Z,0
2017-09-20T04:55:07.355Z,0
2017-09-20T04:56:16.386Z,0
2017-09-20T04:57:25.738Z,0
2017-09-20T04:58:34.391Z,0
2017-09-20T04:59:43.744Z,0
2017-09-20T05:00:52.424Z,0
2017-09-20T05:02:01.714Z,0
2017-09-20T05:03:10.738Z,0
2017-09-20T05:04:19.803Z,0
2017-09-20T05:05:29.441Z,0
2017-09-20T05:06:38.430Z,0
2017-09-20T05:07:47.425Z,0
2017-09-20T05:08:56.415Z,0
2017-09-20T05:10:05.697Z,0
2017-09-20T05:11:14.700Z,0
2017-09-20T05:12:23.740Z,0
2017-09-20T05:13:32.766Z,0
2017-09-20T05:14:41.820Z,0
2017-09-20T05:15:51.163Z,0
2017-09-20T05:17:00.180Z,0
2017-09-20T05:18:09.167Z,0
2017-09-20T05:19:17.866Z,0
2017-09-20T05:20:27.182Z,0
2017-09-20T05:21:36.844Z,0
2017-09-20T05:22:46.268Z,0
2017-09-20T05:23:55.580Z,0
2017-09-20T05:25:04.885Z,0
2017-09-20T05:26:13.568Z,0
2017-09-20T05:27:23.191Z,0
2017-09-20T05:28:32.164Z,0
2017-09-20T05:29:41.480Z,0
2017-09-20T05:30:51.075Z,0
2017-09-20T05:32:00.998Z,0
2017-09-20T05:33:09.974Z,0
2017-09-20T05:34:18.955Z,0
2017-09-20T05:35:28.322Z,0
2017-09-20T05:36:37.630Z,0
2017-09-20T05:37:46.636Z,0
2017-09-20T05:38:55.621Z,0
2017-09-20T05:40:04.906Z,0
2017-09-20T05:41:13.582Z,0
2017-09-20T05:42:23.226Z,0
2017-09-20T05:43:32.222Z,0
2017-09-20T05:44:41.204Z,0
2017-09-20T05:45:50.245Z,0
2017-09-20T05:46:58.949Z,0
2017-09-20T05:48:07.995Z,0
2017-09-20T05:49:16.689Z,0
2017-09-20T05:50:26.042Z,0
2017-09-20T05:51:34.718Z,0
2017-09-20T05:52:44.318Z,0
2017-09-20T05:53:52.977Z,0
2017-09-20T05:55:01.955Z,0
2017-09-20T05:56:11.278Z,0
2017-09-20T05:57:20.930Z,0
2017-09-20T05:58:29.633Z,0
2017-09-20T05:59:38.294Z,0
2017-09-20T06:00:47.598Z,0
2017-09-20T06:01:56.587Z,0
2017-09-20T06:03:05.884Z,0
2017-09-20T06:04:15.510Z,0
2017-09-20T06:05:24.181Z,0
2017-09-20T06:06:33.484Z,0
2017-09-20T06:07:42.786Z,0
2017-09-20T06:08:51.765Z,0
2017-09-20T06:10:00.739Z,0
2017-09-20T06:11:09.711Z,0
2017-09-20T06:12:18.736Z,0
2017-09-20T06:13:27.398Z,0
2017-09-20T06:14:37.333Z,0
2017-09-20T06:15:46.335Z,0
2017-09-20T06:16:55.986Z,0
2017-09-20T06:18:05.326Z,0
2017-09-20T06:19:14.316Z,0
2017-09-20T06:20:23.608Z,0
2017-09-20T06:21:33.219Z,0
2017-09-20T06:22:42.204Z,0
2017-09-20T06:23:51.503Z,0
2017-09-20T06:25:00.785Z,0
2017-09-20T06:26:10.081Z,0
2017-09-20T06:27:18.747Z,0
2017-09-20T06:28:28.118Z,0
2017-09-20T06:29:37.431Z,5
2017-09-20T06:30:46.098Z,5
2017-09-20T06:31:55.083Z,5
2017-09-20T06:33:04.100Z,5
2017-09-20T06:34:13.135Z,5
2017-09-20T06:35:22.136Z,5
2017-09-20T06:36:32.394Z,5
2017-09-20T06:37:41.368Z,5
2017-09-20T06:38:50.044Z,5
2017-09-20T06:39:59.039Z,5
2017-09-20T06:41:08.034Z,5
2017-09-20T06:42:17.020Z,5
2017-09-20T06:43:26.329Z,5
2017-09-20T06:44:35.656Z,5
2017-09-20T06:45:44.965Z,5
2017-09-20T06:46:53.634Z,5
2017-09-20T06:48:02.626Z,5
2017-09-20T06:49:12.244Z,5
2017-09-20T06:50:21.586Z,5
2017-09-20T06:51:31.237Z,5
2017-09-20T06:52:40.542Z,0
2017-09-20T06:53:49.844Z,0
2017-09-20T06:54:59.226Z,0
2017-09-20T06:56:08.211Z,0
2017-09-20T06:57:17.215Z,0
2017-09-20T06:58:25.909Z,0
2017-09-20T06:59:34.905Z,0
2017-09-20T07:00:43.887Z,5
2017-09-20T07:01:53.253Z,5
2017-09-20T07:03:02.266Z,5
2017-09-20T07:04:10.989Z,5
2017-09-20T07:05:20.330Z,5
2017-09-20T07:06:29.367Z,5
2017-09-20T07:07:38.668Z,5
2017-09-20T07:08:48.306Z,5
2017-09-20T07:09:57.300Z,5
2017-09-20T07:11:05.968Z,5
2017-09-20T07:12:14.946Z,5
2017-09-20T07:13:23.980Z,5
2017-09-20T07:14:32.666Z,5
2017-09-20T07:15:41.730Z,5
2017-09-20T07:16:51.348Z,5
2017-09-20T07:18:00.351Z,5
2017-09-20T07:19:09.037Z,5
2017-09-20T07:20:18.400Z,5
2017-09-20T07:21:27.431Z,5
2017-09-20T07:22:36.440Z,5
2017-09-20T07:23:45.189Z,5
2017-09-20T07:24:54.490Z,5
2017-09-20T07:26:03.474Z,10
2017-09-20T07:27:12.839Z,10
2017-09-20T07:28:22.803Z,15
2017-09-20T07:29:31.471Z,10
2017-09-20T07:30:40.157Z,10
2017-09-20T07:31:49.499Z,5
2017-09-20T07:32:58.193Z,5
2017-09-20T07:34:07.176Z,10
2017-09-20T07:35:16.172Z,10
2017-09-20T07:36:25.161Z,10
2017-09-20T07:37:34.152Z,10
2017-09-20T07:38:42.814Z,10
2017-09-20T07:39:51.789Z,15
2017-09-20T07:41:01.396Z,15
2017-09-20T07:42:11.007Z,15
2017-09-20T07:43:20.640Z,15
2017-09-20T07:44:29.726Z,15
2017-09-20T07:45:38.413Z,25
2017-09-20T07:46:47.386Z,45
2017-09-20T07:47:56.397Z,50
2017-09-20T07:49:05.391Z,50
2017-09-20T07:50:14.781Z,45
2017-09-20T07:51:24.065Z,50
2017-09-20T07:52:33.371Z,40
2017-09-20T07:53:42.360Z,35
2017-09-20T07:54:51.454Z,40
2017-09-20T07:56:00.114Z,45
2017-09-20T07:57:09.411Z,45
2017-09-20T07:58:18.767Z,50
2017-09-20T07:59:27.779Z,50
2017-09-20T08:00:37.107Z,45
2017-09-20T08:01:46.098Z,35
2017-09-20T08:02:55.715Z,55
2017-09-20T08:04:04.696Z,60
2017-09-20T08:05:13.695Z,45
2017-09-20T08:06:23.024Z,45
2017-09-20T08:07:31.692Z,45
2017-09-20T08:08:40.666Z,70
2017-09-20T08:09:49.975Z,70
2017-09-20T08:10:59.293Z,80
2017-09-20T08:12:08.008Z,70
2017-09-20T08:13:16.987Z,30
2017-09-20T08:14:26.012Z,20
2017-09-20T08:15:34.792Z,15
2017-09-20T08:16:43.638Z,20
2017-09-20T08:17:52.794Z,15
2017-09-20T08:19:01.453Z,15
2017-09-20T08:20:10.227Z,15
2017-09-20T08:21:19.213Z,15
2017-09-20T08:22:28.865Z,15
2017-09-20T08:23:37.839Z,15
2017-09-20T08:24:46.584Z,20
2017-09-20T08:25:55.910Z,25
2017-09-20T08:27:04.901Z,25
2017-09-20T08:28:13.571Z,25
2017-09-20T08:29:22.701Z,35
2017-09-20T08:30:31.778Z,30
2017-09-20T08:31:40.532Z,30
2017-09-20T08:32:49.198Z,30
2017-09-20T08:33:58.179Z,25
2017-09-20T08:35:07.518Z,20
2017-09-20T08:36:16.189Z,15
2017-09-20T08:37:24.873Z,10
2017-09-20T08:38:33.880Z,15
2017-09-20T08:39:42.859Z,15
2017-09-20T08:40:51.855Z,15
2017-09-20T08:42:00.836Z,20
2017-09-20T08:43:10.117Z,15
2017-09-20T08:44:19.413Z,10
2017-09-20T08:45:28.400Z,15
2017-09-20T08:46:37.068Z,20
2017-09-20T08:47:46.349Z,30
2017-09-20T08:48:55.348Z,35
2017-09-20T08:50:04.327Z,30
2017-09-20T08:51:13.318Z,35
2017-09-20T08:52:22.620Z,45
2017-09-20T08:53:31.279Z,50
2017-09-20T08:54:39.937Z,55
2017-09-20T08:55:49.233Z,50
2017-09-20T08:56:59.216Z,65
2017-09-20T08:58:08.287Z,65
2017-09-20T08:59:17.601Z,50
2017-09-20T09:00:26.591Z,55
2017-09-20T09:01:35.715Z,55
2017-09-20T09:02:44.714Z,65
2017-09-20T09:03:53.694Z,80
2017-09-20T09:05:02.358Z,70
2017-09-20T09:06:11.355Z,60
2017-09-20T09:07:20.357Z,55
2017-09-20T09:08:29.027Z,60
2017-09-20T09:09:38.330Z,50
2017-09-20T09:10:47.632Z,50
2017-09-20T09:11:56.319Z,45
2017-09-20T09:13:05.613Z,45
2017-09-20T09:14:14.617Z,40
2017-09-20T09:15:23.615Z,40
2017-09-20T09:16:32.938Z,35
2017-09-20T09:17:42.247Z,40
2017-09-20T09:18:50.907Z,40
2017-09-20T09:20:00.211Z,45
2017-09-20T09:21:08.866Z,45
2017-09-20T09:22:17.860Z,45
2017-09-20T09:23:26.853Z,50
2017-09-20T09:24:35.828Z,45
2017-09-20T09:25:44.827Z,50
2017-09-20T09:26:54.247Z,55
2017-09-20T09:28:03.566Z,55
2017-09-20T09:29:12.906Z,60
2017-09-20T09:30:21.883Z,50
2017-09-20T09:31:31.250Z,50
2017-09-20T09:32:40.362Z,65
2017-09-20T09:33:49.102Z,60
2017-09-20T09:34:57.796Z,55
2017-09-20T09:36:06.828Z,55
2017-09-20T09:37:16.152Z,50
2017-09-20T09:38:25.453Z,50
2017-09-20T09:39:34.428Z,50
2017-09-20T09:40:44.051Z,60
2017-09-20T09:41:52.730Z,55
2017-09-20T09:43:02.129Z,60
2017-09-20T09:44:10.795Z,55
2017-09-20T09:45:19.858Z,55
2017-09-20T09:46:29.174Z,50
2017-09-20T09:47:38.481Z,50
2017-09-20T09:48:47.467Z,40
2017-09-20T09:49:56.463Z,35
2017-09-20T09:51:05.444Z,30
2017-09-20T09:52:14.102Z,30
2017-09-20T09:53:23.727Z,30
2017-09-20T09:54:33.360Z,35
2017-09-20T09:55:42.053Z,30
2017-09-20T09:56:51.050Z,30
2017-09-20T09:58:00.354Z,35
2017-09-20T09:59:09.653Z,40
2017-09-20T10:00:18.644Z,50
2017-09-20T10:01:27.672Z,50
2017-09-20T10:02:36.690Z,50
2017-09-20T10:03:45.362Z,50
2017-09-20T10:04:54.712Z,45
2017-09-20T10:06:03.388Z,40
2017-09-20T10:07:12.053Z,35
2017-09-20T10:08:21.681Z,45
2017-09-20T10:09:30.747Z,35
2017-09-20T10:10:39.739Z,25
2017-09-20T10:11:48.718Z,20
2017-09-20T10:12:58.022Z,15
2017-09-20T10:14:06.710Z,20
2017-09-20T10:15:15.746Z,25
2017-09-20T10:16:25.454Z,35
2017-09-20T10:17:34.499Z,35
2017-09-20T10:18:43.794Z,30
2017-09-20T10:19:52.783Z,25
2017-09-20T10:21:01.771Z,25
2017-09-20T10:22:10.457Z,30
2017-09-20T10:23:19.435Z,30
2017-09-20T10:24:28.575Z,35
2017-09-20T10:25:37.893Z,35
2017-09-20T10:26:46.993Z,40
2017-09-20T10:27:55.979Z,40
2017-09-20T10:29:05.014Z,30
2017-09-20T10:30:14.340Z,50
2017-09-20T10:31:23.036Z,50
2017-09-20T10:32:32.201Z,45
2017-09-20T10:33:41.210Z,45
2017-09-20T10:34:49.879Z,45
2017-09-20T10:35:58.572Z,50
2017-09-20T10:37:07.557Z,55
2017-09-20T10:38:16.879Z,50
2017-09-20T10:39:25.867Z,45
2017-09-20T10:40:34.884Z,45
2017-09-20T10:41:44.220Z,40
2017-09-20T10:42:52.892Z,35
2017-09-20T10:44:01.556Z,35
2017-09-20T10:45:10.238Z,30
2017-09-20T10:46:18.926Z,25
2017-09-20T10:47:27.592Z,30
2017-09-20T10:48:36.898Z,35
2017-09-20T10:49:45.876Z,40
2017-09-20T10:50:54.926Z,35
2017-09-20T10:52:03.912Z,30
2017-09-20T10:53:13.218Z,30
2017-09-20T10:54:22.213Z,30
2017-09-20T10:55:31.212Z,25
2017-09-20T10:56:41.131Z,30
2017-09-20T10:57:50.797Z,35
2017-09-20T10:59:00.103Z,35
2017-09-20T11:00:09.400Z,35
2017-09-20T11:01:18.701Z,35
2017-09-20T11:02:27.368Z,35
2017-09-20T11:03:36.663Z,35
2017-09-20T11:04:46.602Z,35
2017-09-20T11:05:55.280Z,40
2017-09-20T11:07:04.299Z,45
2017-09-20T11:08:12.994Z,50
2017-09-20T11:09:22.311Z,45
2017-09-20T11:10:31.625Z,50
2017-09-20T11:11:40.611Z,45
2017-09-20T11:12:49.941Z,35
2017-09-20T11:13:59.553Z,25
2017-09-20T11:15:08.219Z,20
2017-09-20T11:16:17.243Z,20
2017-09-20T11:17:26.550Z,25
2017-09-20T11:18:35.856Z,40
2017-09-20T11:19:44.541Z,45
2017-09-20T11:20:53.863Z,55
2017-09-20T11:22:03.510Z,45
2017-09-20T11:23:12.863Z,35
2017-09-20T11:24:22.120Z,35
2017-09-20T11:25:31.115Z,35
2017-09-20T11:26:40.101Z,40
2017-09-20T11:27:49.725Z,45
2017-09-20T11:28:58.711Z,45
2017-09-20T11:30:07.722Z,45
2017-09-20T11:31:16.696Z,45
2017-09-20T11:32:25.687Z,50
2017-09-20T11:33:35.076Z,55
2017-09-20T11:34:43.742Z,50
2017-09-20T11:35:52.732Z,45
2017-09-20T11:37:02.036Z,45
2017-09-20T11:38:11.330Z,40
2017-09-20T11:39:20.327Z,40
2017-09-20T11:40:29.322Z,40
2017-09-20T11:41:37.994Z,40
2017-09-20T11:42:46.985Z,45
2017-09-20T11:43:55.979Z,40
2017-09-20T11:45:04.968Z,45
2017-09-20T11:46:13.943Z,40
2017-09-20T11:47:22.941Z,40
2017-09-20T11:48:32.235Z,40
2017-09-20T11:49:42.174Z,40
2017-09-20T11:50:51.233Z,30
2017-09-20T11:51:59.936Z,25
2017-09-20T11:53:08.623Z,25
2017-09-20T11:54:17.622Z,30
2017-09-20T11:55:26.615Z,25
2017-09-20T11:56:35.933Z,25
2017-09-20T11:57:44.924Z,30
2017-09-20T11:58:54.533Z,30
2017-09-20T12:00:03.553Z,30
2017-09-20T12:01:12.530Z,30
2017-09-20T12:02:21.529Z,25
2017-09-20T12:03:30.200Z,20
2017-09-20T12:04:39.564Z,20
2017-09-20T12:05:48.255Z,20
2017-09-20T12:06:57.634Z,20
2017-09-20T12:08:06.620Z,20
2017-09-20T12:09:15.615Z,20
2017-09-20T12:10:24.275Z,20
2017-09-20T12:11:33.573Z,20
2017-09-20T12:12:42.233Z,20
2017-09-20T12:13:50.917Z,15
2017-09-20T12:15:00.848Z,15
2017-09-20T12:16:10.168Z,15
2017-09-20T12:17:19.163Z,15
2017-09-20T12:18:27.843Z,15
2017-09-20T12:19:36.822Z,20
2017-09-20T12:20:45.831Z,20
2017-09-20T12:21:54.509Z,20
2017-09-20T12:23:04.152Z,15
2017-09-20T12:24:13.131Z,20
2017-09-20T12:25:22.110Z,20
2017-09-20T12:26:31.118Z,25
2017-09-20T12:27:40.442Z,30
2017-09-20T12:28:49.108Z,35
2017-09-20T12:29:58.467Z,35
2017-09-20T12:31:07.814Z,35
2017-09-20T12:32:16.802Z,35
2017-09-20T12:33:26.286Z,35
2017-09-20T12:34:35.585Z,40
2017-09-20T12:35:44.626Z,40
2017-09-20T12:36:53.644Z,35
2017-09-20T12:38:02.353Z,30
2017-09-20T12:39:11.348Z,30
2017-09-20T12:40:20.124Z,25
2017-09-20T12:41:29.115Z,20
2017-09-20T12:42:38.093Z,20
2017-09-20T12:43:46.786Z,20
2017-09-20T12:44:56.401Z,20
2017-09-20T12:46:05.705Z,20
2017-09-20T12:47:14.700Z,20
2017-09-20T12:48:24.370Z,20
2017-09-20T12:49:33.350Z,15
2017-09-20T12:50:42.017Z,15
2017-09-20T12:51:51.321Z,15
2017-09-20T12:53:00.646Z,15
2017-09-20T12:54:09.956Z,15
2017-09-20T12:55:18.955Z,15
2017-09-20T12:56:28.000Z,15
2017-09-20T12:57:37.298Z,20
2017-09-20T12:58:45.981Z,20
2017-09-20T12:59:54.665Z,20
2017-09-20T13:01:03.347Z,15
2017-09-20T13:02:12.353Z,15
2017-09-20T13:03:21.983Z,15
2017-09-20T13:04:30.973Z,15
2017-09-20T13:05:40.304Z,15
2017-09-20T13:06:49.015Z,15
2017-09-20T13:07:58.365Z,15
2017-09-20T13:09:07.419Z,15
2017-09-20T13:10:16.412Z,15
2017-09-20T13:11:25.084Z,15
2017-09-20T13:12:33.781Z,15
2017-09-20T13:13:42.465Z,15
2017-09-20T13:14:51.464Z,15
2017-09-20T13:16:00.481Z,15
2017-09-20T13:17:09.791Z,15
2017-09-20T13:18:19.730Z,15
2017-09-20T13:19:28.724Z,15
2017-09-20T13:20:38.329Z,15
2017-09-20T13:21:47.303Z,15
2017-09-20T13:22:55.970Z,15
2017-09-20T13:24:05.324Z,15
2017-09-20T13:25:14.306Z,15
2017-09-20T13:26:22.971Z,15
2017-09-20T13:27:32.285Z,15
2017-09-20T13:28:40.951Z,15
2017-09-20T13:29:49.628Z,15
2017-09-20T13:30:59.242Z,15
2017-09-20T13:32:08.228Z,15
2017-09-20T13:33:17.209Z,15
2017-09-20T13:34:26.191Z,15
2017-09-20T13:35:34.854Z,15
2017-09-20T13:36:44.180Z,15
2017-09-20T13:37:53.179Z,15
2017-09-20T13:39:02.503Z,15
2017-09-20T13:40:11.814Z,15
2017-09-20T13:41:20.791Z,15
2017-09-20T13:42:29.793Z,20
2017-09-20T13:43:38.804Z,20
2017-09-20T13:44:47.462Z,25
2017-09-20T13:45:56.770Z,25
2017-09-20T13:47:05.779Z,20
2017-09-20T13:48:14.776Z,20
2017-09-20T13:49:23.459Z,20
2017-09-20T13:50:33.101Z,25
2017-09-20T13:51:42.475Z,25
2017-09-20T13:52:51.465Z,30
2017-09-20T13:54:00.479Z,30
2017-09-20T13:55:09.161Z,25
2017-09-20T13:56:18.493Z,25
2017-09-20T13:57:27.200Z,25
2017-09-20T13:58:36.814Z,35
2017-09-20T13:59:45.475Z,30
2017-09-20T14:00:54.788Z,30
2017-09-20T14:02:04.088Z,25
2017-09-20T14:03:13.395Z,20
2017-09-20T14:04:22.381Z,20
2017-09-20T14:05:32.348Z,20
2017-09-20T14:06:41.008Z,20
2017-09-20T14:07:49.674Z,20
2017-09-20T14:08:58.686Z,15
2017-09-20T14:10:07.704Z,15
2017-09-20T14:11:17.021Z,15
2017-09-20T14:12:26.335Z,15
2017-09-20T14:13:35.325Z,15
2017-09-20T14:14:44.321Z,15
2017-09-20T14:15:53.307Z,15
2017-09-20T14:17:03.266Z,15
2017-09-20T14:18:12.573Z,15
2017-09-20T14:19:21.562Z,15
2017-09-20T14:20:31.198Z,20
2017-09-20T14:21:40.507Z,20
2017-09-20T14:22:49.486Z,20
2017-09-20T14:23:58.787Z,25
2017-09-20T14:25:08.108Z,25
2017-09-20T14:26:17.081Z,20
2017-09-20T14:27:26.365Z,25
2017-09-20T14:28:35.373Z,20
2017-09-20T14:29:44.985Z,20
2017-09-20T14:30:54.923Z,20
2017-09-20T14:32:03.606Z,20
2017-09-20T14:33:12.427Z,15
2017-09-20T14:34:21.442Z,15
2017-09-20T14:35:30.331Z,15
2017-09-20T14:36:39.014Z,15
2017-09-20T14:37:48.030Z,15
2017-09-20T14:38:57.026Z,15
2017-09-20T14:40:06.019Z,15
2017-09-20T14:41:14.683Z,15
2017-09-20T14:42:23.716Z,20
2017-09-20T14:43:33.010Z,20
2017-09-20T14:44:42.320Z,20
2017-09-20T14:45:51.314Z,25
2017-09-20T14:47:00.333Z,25
2017-09-20T14:48:09.319Z,25
2017-09-20T14:49:18.339Z,20
2017-09-20T14:50:27.663Z,25
2017-09-20T14:51:36.652Z,25
2017-09-20T14:52:45.670Z,20
2017-09-20T14:53:54.339Z,20
2017-09-20T14:55:03.322Z,20
2017-09-20T14:56:11.997Z,20
2017-09-20T14:57:20.985Z,20
2017-09-20T14:58:30.308Z,20
2017-09-20T14:59:39.317Z,20
2017-09-20T15:00:48.008Z,20
2017-09-20T15:01:57.008Z,20
2017-09-20T15:03:06.653Z,20
2017-09-20T15:04:15.958Z,20
2017-09-20T15:05:24.636Z,20
2017-09-20T15:06:33.612Z,20
2017-09-20T15:07:42.945Z,20
2017-09-20T15:08:51.612Z,20
2017-09-20T15:10:00.621Z,20
2017-09-20T15:11:09.288Z,20
2017-09-20T15:12:18.592Z,20
2017-09-20T15:13:27.283Z,20
2017-09-20T15:14:36.299Z,20
2017-09-20T15:15:45.279Z,20
2017-09-20T15:16:53.970Z,20
2017-09-20T15:18:03.280Z,20
2017-09-20T15:19:12.906Z,20
2017-09-20T15:20:21.577Z,20
2017-09-20T15:21:30.264Z,15
2017-09-20T15:22:38.933Z,15
2017-09-20T15:23:47.653Z,15
2017-09-20T15:24:56.978Z,15
2017-09-20T15:26:05.697Z,15
2017-09-20T15:27:14.399Z,15
2017-09-20T15:28:23.397Z,15
2017-09-20T15:29:32.085Z,15
2017-09-20T15:30:42.319Z,15
2017-09-20T15:31:51.922Z,15
2017-09-20T15:33:00.582Z,15
2017-09-20T15:34:09.261Z,10
2017-09-20T15:35:18.289Z,10
2017-09-20T15:36:27.281Z,10
2017-09-20T15:37:36.278Z,10
2017-09-20T15:38:44.960Z,10
2017-09-20T15:39:54.585Z,10
2017-09-20T15:41:03.248Z,10
2017-09-20T15:42:12.229Z,10
2017-09-20T15:43:21.233Z,10
2017-09-20T15:44:30.282Z,10
2017-09-20T15:45:39.292Z,10
2017-09-20T15:46:48.342Z,10
2017-09-20T15:47:57.331Z,10
2017-09-20T15:49:06.654Z,10
2017-09-20T15:50:15.981Z,10
2017-09-20T15:51:25.610Z,10
2017-09-20T15:52:34.269Z,10
2017-09-20T15:53:43.248Z,10
2017-09-20T15:54:52.346Z,10
2017-09-20T15:56:01.335Z,10
2017-09-20T15:57:10.327Z,10
2017-09-20T15:58:19.310Z,10
2017-09-20T15:59:28.728Z,10
2017-09-20T16:00:38.079Z,10
2017-09-20T16:01:47.080Z,5
2017-09-20T16:02:55.846Z,5
2017-09-20T16:04:04.658Z,5
2017-09-20T16:05:13.352Z,10
2017-09-20T16:06:22.678Z,10
2017-09-20T16:07:32.001Z,10
2017-09-20T16:08:41.335Z,5
2017-09-20T16:09:50.648Z,10
2017-09-20T16:10:59.335Z,10
2017-09-20T16:12:08.631Z,10
2017-09-20T16:13:17.625Z,5
2017-09-20T16:14:27.238Z,5
2017-09-20T16:15:36.558Z,10
2017-09-20T16:16:45.876Z,10
2017-09-20T16:17:54.852Z,10
2017-09-20T16:19:03.826Z,10
2017-09-20T16:20:12.859Z,10
2017-09-20T16:21:21.521Z,10
2017-09-20T16:22:30.494Z,5
2017-09-20T16:23:39.810Z,5
2017-09-20T16:24:48.461Z,5
2017-09-20T16:25:57.444Z,5
2017-09-20T16:27:06.143Z,5
2017-09-20T16:28:15.158Z,5
2017-09-20T16:29:24.141Z,5
2017-09-20T16:30:33.124Z,5
2017-09-20T16:31:41.806Z,5
2017-09-20T16:32:51.404Z,5
2017-09-20T16:34:00.075Z,5
2017-09-20T16:35:09.063Z,5
2017-09-20T16:36:18.067Z,5
2017-09-20T16:37:26.719Z,5
2017-09-20T16:38:35.376Z,5
2017-09-20T16:39:44.362Z,5
2017-09-20T16:40:53.100Z,5
2017-09-20T16:42:02.107Z,5